sensor_id;sensor_type;location;lat;lon;timestamp;pressure;altitude;pressure_sealevel;temperature;humidity
76746;BME280;65671;49.976;20.038;2023-04-25T00:02:01;96788.81;;;10.52;98.19
76746;BME280;65671;49.976;20.038;2023-04-25T00:04:28;96789.84;;;10.58;98.20
76746;BME280;65671;49.976;20.038;2023-04-25T00:06:55;96788.47;;;10.50;98.09
76746;BME280;65671;49.976;20.038;2023-04-25T00:09:21;96785.75;;;10.50;98.69
76746;BME280;65671;49.976;20.038;2023-04-25T00:11:48;96789.63;;;10.49;98.93
76746;BME280;65671;49.976;20.038;2023-04-25T00:14:14;96790.66;;;10.55;98.07
76746;BME280;65671;49.976;20.038;2023-04-25T00:16:39;96778.56;;;10.44;98.26
76746;BME280;65671;49.976;20.038;2023-04-25T00:19:06;96793.16;;;10.30;98.86
76746;BME280;65671;49.976;20.038;2023-04-25T00:21:33;96793.34;;;10.20;99.26
76746;BME280;65671;49.976;20.038;2023-04-25T00:23:59;96798.25;;;10.05;99.11
76746;BME280;65671;49.976;20.038;2023-04-25T00:26:25;96790.97;;;10.02;99.46
76746;BME280;65671;49.976;20.038;2023-04-25T00:28:51;96796.13;;;9.96;98.56
76746;BME280;65671;49.976;20.038;2023-04-25T00:31:16;96788.97;;;9.86;98.47
76746;BME280;65671;49.976;20.038;2023-04-25T00:33:42;96806.38;;;9.85;97.83
76746;BME280;65671;49.976;20.038;2023-04-25T00:36:08;96796.94;;;9.74;99.24
76746;BME280;65671;49.976;20.038;2023-04-25T00:38:33;96799.88;;;9.60;98.56
76746;BME280;65671;49.976;20.038;2023-04-25T00:41:00;96801.84;;;9.59;98.53
76746;BME280;65671;49.976;20.038;2023-04-25T00:43:30;96806.81;;;9.61;99.18
76746;BME280;65671;49.976;20.038;2023-04-25T00:45:57;96810.84;;;9.72;97.69
76746;BME280;65671;49.976;20.038;2023-04-25T00:48:25;96800.78;;;9.53;98.46
76746;BME280;65671;49.976;20.038;2023-04-25T00:50:55;96797.66;;;9.54;98.72
76746;BME280;65671;49.976;20.038;2023-04-25T00:53:24;96809.72;;;9.50;98.83
76746;BME280;65671;49.976;20.038;2023-04-25T00:55:50;96806.25;;;9.49;98.55
76746;BME280;65671;49.976;20.038;2023-04-25T00:58:17;96805.97;;;9.44;99.22
76746;BME280;65671;49.976;20.038;2023-04-25T01:00:45;96807.00;;;9.50;98.63
76746;BME280;65671;49.976;20.038;2023-04-25T01:03:12;96806.34;;;9.42;98.39
76746;BME280;65671;49.976;20.038;2023-04-25T01:05:40;96817.75;;;9.30;99.40
76746;BME280;65671;49.976;20.038;2023-04-25T01:08:07;96811.19;;;9.31;99.27
76746;BME280;65671;49.976;20.038;2023-04-25T01:10:32;96815.88;;;9.27;99.26
76746;BME280;65671;49.976;20.038;2023-04-25T01:12:59;96814.22;;;9.33;99.88
76746;BME280;65671;49.976;20.038;2023-04-25T01:15:24;96814.41;;;9.23;100.00
76746;BME280;65671;49.976;20.038;2023-04-25T01:17:50;96818.72;;;9.20;99.60
76746;BME280;65671;49.976;20.038;2023-04-25T01:20:16;96817.41;;;9.28;99.36
76746;BME280;65671;49.976;20.038;2023-04-25T01:22:42;96813.59;;;9.26;99.35
76746;BME280;65671;49.976;20.038;2023-04-25T01:25:09;96815.19;;;9.23;100.00
76746;BME280;65671;49.976;20.038;2023-04-25T01:27:36;96816.06;;;9.17;100.00
76746;BME280;65671;49.976;20.038;2023-04-25T01:30:03;96818.13;;;9.32;100.00
76746;BME280;65671;49.976;20.038;2023-04-25T01:32:29;96819.19;;;9.38;100.00
76746;BME280;65671;49.976;20.038;2023-04-25T01:35:06;96828.44;;;9.37;99.38
76746;BME280;65671;49.976;20.038;2023-04-25T01:37:39;96820.00;;;9.35;99.76
76746;BME280;65671;49.976;20.038;2023-04-25T01:40:06;96817.66;;;9.37;99.26
76746;BME280;65671;49.976;20.038;2023-04-25T01:42:33;96824.16;;;9.40;99.32
76746;BME280;65671;49.976;20.038;2023-04-25T01:45:00;96824.09;;;9.43;99.63
76746;BME280;65671;49.976;20.038;2023-04-25T01:47:25;96818.00;;;9.39;99.82
76746;BME280;65671;49.976;20.038;2023-04-25T01:49:51;96823.94;;;9.31;99.82
76746;BME280;65671;49.976;20.038;2023-04-25T01:52:17;96828.97;;;9.29;99.44
76746;BME280;65671;49.976;20.038;2023-04-25T01:54:42;96819.78;;;9.26;99.83
76746;BME280;65671;49.976;20.038;2023-04-25T01:57:13;96832.16;;;9.24;100.00
76746;BME280;65671;49.976;20.038;2023-04-25T01:59:39;96829.75;;;9.29;99.94
76746;BME280;65671;49.976;20.038;2023-04-25T02:02:06;96828.44;;;9.14;100.00
76746;BME280;65671;49.976;20.038;2023-04-25T02:04:32;96832.91;;;9.24;100.00
76746;BME280;65671;49.976;20.038;2023-04-25T02:06:58;96838.25;;;9.28;99.40
76746;BME280;65671;49.976;20.038;2023-04-25T02:09:24;96835.59;;;9.24;99.84
76746;BME280;65671;49.976;20.038;2023-04-25T02:11:49;96836.78;;;9.23;100.00
76746;BME280;65671;49.976;20.038;2023-04-25T02:14:15;96829.28;;;9.34;100.00
76746;BME280;65671;49.976;20.038;2023-04-25T02:16:41;96834.97;;;9.40;99.74
76746;BME280;65671;49.976;20.038;2023-04-25T02:19:09;96838.25;;;9.28;99.35
76746;BME280;65671;49.976;20.038;2023-04-25T02:21:35;96841.72;;;9.28;99.68
76746;BME280;65671;49.976;20.038;2023-04-25T02:24:02;96841.38;;;9.26;98.48
76746;BME280;65671;49.976;20.038;2023-04-25T02:26:27;96834.84;;;9.24;98.47
76746;BME280;65671;49.976;20.038;2023-04-25T02:28:53;96848.75;;;9.22;98.54
76746;BME280;65671;49.976;20.038;2023-04-25T02:31:18;96852.03;;;9.10;98.48
76746;BME280;65671;49.976;20.038;2023-04-25T02:33:44;96843.94;;;9.10;98.07
76746;BME280;65671;49.976;20.038;2023-04-25T02:36:10;96853.88;;;9.17;98.83
76746;BME280;65671;49.976;20.038;2023-04-25T02:38:35;96845.75;;;9.17;99.16
76746;BME280;65671;49.976;20.038;2023-04-25T02:41:01;96839.88;;;9.22;99.11
76746;BME280;65671;49.976;20.038;2023-04-25T02:43:26;96841.81;;;9.21;99.53
76746;BME280;65671;49.976;20.038;2023-04-25T02:45:52;96844.47;;;9.25;99.71
76746;BME280;65671;49.976;20.038;2023-04-25T02:48:17;96846.66;;;9.33;99.02
76746;BME280;65671;49.976;20.038;2023-04-25T02:50:43;96838.47;;;9.14;99.22
76746;BME280;65671;49.976;20.038;2023-04-25T02:53:08;96837.06;;;9.06;99.79
76746;BME280;65671;49.976;20.038;2023-04-25T02:55:34;96838.56;;;9.07;99.58
76746;BME280;65671;49.976;20.038;2023-04-25T02:58:00;96830.13;;;9.05;100.00
76746;BME280;65671;49.976;20.038;2023-04-25T03:00:25;96831.72;;;9.02;99.47
76746;BME280;65671;49.976;20.038;2023-04-25T03:02:51;96833.56;;;9.09;98.94
76746;BME280;65671;49.976;20.038;2023-04-25T03:05:16;96833.38;;;9.19;98.82
76746;BME280;65671;49.976;20.038;2023-04-25T03:07:42;96836.38;;;9.25;98.35
76746;BME280;65671;49.976;20.038;2023-04-25T03:10:09;96840.19;;;9.27;97.84
76746;BME280;65671;49.976;20.038;2023-04-25T03:12:35;96826.22;;;9.32;97.46
76746;BME280;65671;49.976;20.038;2023-04-25T03:15:02;96834.84;;;9.24;97.42
76746;BME280;65671;49.976;20.038;2023-04-25T03:17:28;96823.53;;;9.32;98.31
76746;BME280;65671;49.976;20.038;2023-04-25T03:19:53;96832.97;;;9.21;98.22
76746;BME280;65671;49.976;20.038;2023-04-25T03:22:19;96839.38;;;9.30;98.45
76746;BME280;65671;49.976;20.038;2023-04-25T03:24:44;96835.38;;;9.38;98.30
76746;BME280;65671;49.976;20.038;2023-04-25T03:27:10;96835.31;;;9.42;98.13
76746;BME280;65671;49.976;20.038;2023-04-25T03:29:35;96841.72;;;9.28;99.44
76746;BME280;65671;49.976;20.038;2023-04-25T03:32:01;96840.03;;;9.38;99.18
76746;BME280;65671;49.976;20.038;2023-04-25T03:34:26;96838.78;;;9.42;98.77
76746;BME280;65671;49.976;20.038;2023-04-25T03:36:52;96843.03;;;9.43;98.45
76746;BME280;65671;49.976;20.038;2023-04-25T03:39:17;96831.63;;;9.56;98.14
76746;BME280;65671;49.976;20.038;2023-04-25T03:41:43;96831.72;;;9.48;97.37
76746;BME280;65671;49.976;20.038;2023-04-25T03:44:08;96855.94;;;9.32;98.68
76746;BME280;65671;49.976;20.038;2023-04-25T03:46:34;96847.06;;;9.32;99.25
76746;BME280;65671;49.976;20.038;2023-04-25T03:48:59;96854.97;;;9.19;99.30
76746;BME280;65671;49.976;20.038;2023-04-25T03:51:25;96855.16;;;9.09;100.00
76746;BME280;65671;49.976;20.038;2023-04-25T03:53:51;96861.25;;;9.13;99.96
76746;BME280;65671;49.976;20.038;2023-04-25T03:56:17;96851.63;;;9.12;99.39
76746;BME280;65671;49.976;20.038;2023-04-25T03:58:43;96870.34;;;8.99;99.46
76746;BME280;65671;49.976;20.038;2023-04-25T04:01:09;96875.72;;;8.99;98.40
76746;BME280;65671;49.976;20.038;2023-04-25T04:03:35;96866.09;;;8.98;97.74
76746;BME280;65671;49.976;20.038;2023-04-25T04:06:03;96868.97;;;8.87;98.59
76746;BME280;65671;49.976;20.038;2023-04-25T04:08:29;96873.63;;;8.83;99.29
76746;BME280;65671;49.976;20.038;2023-04-25T04:10:56;96879.84;;;8.80;98.80
76746;BME280;65671;49.976;20.038;2023-04-25T04:13:22;96884.47;;;8.80;100.00
76746;BME280;65671;49.976;20.038;2023-04-25T04:15:47;96888.34;;;8.79;98.91
76746;BME280;65671;49.976;20.038;2023-04-25T04:18:13;96891.75;;;8.83;98.84
76746;BME280;65671;49.976;20.038;2023-04-25T04:20:39;96889.13;;;8.79;99.87
76746;BME280;65671;49.976;20.038;2023-04-25T04:23:04;96895.41;;;8.69;100.00
76746;BME280;65671;49.976;20.038;2023-04-25T04:25:30;96900.34;;;8.74;99.49
76746;BME280;65671;49.976;20.038;2023-04-25T04:27:56;96907.28;;;8.75;98.86
76746;BME280;65671;49.976;20.038;2023-04-25T04:30:23;96901.97;;;8.68;98.86
76746;BME280;65671;49.976;20.038;2023-04-25T04:32:55;96917.06;;;8.62;99.40
76746;BME280;65671;49.976;20.038;2023-04-25T04:35:22;96911.59;;;8.69;99.56
76746;BME280;65671;49.976;20.038;2023-04-25T04:37:47;96914.97;;;8.77;99.58
76746;BME280;65671;49.976;20.038;2023-04-25T04:40:14;96922.41;;;8.69;99.27
76746;BME280;65671;49.976;20.038;2023-04-25T04:42:44;96918.22;;;8.65;99.72
76746;BME280;65671;49.976;20.038;2023-04-25T04:45:14;96916.47;;;8.48;97.12
76746;BME280;65671;49.976;20.038;2023-04-25T04:47:41;96919.56;;;8.50;97.14
76746;BME280;65671;49.976;20.038;2023-04-25T04:50:07;96918.16;;;8.38;96.79
76746;BME280;65671;49.976;20.038;2023-04-25T04:52:38;96923.44;;;8.45;96.89
76746;BME280;65671;49.976;20.038;2023-04-25T04:55:05;96923.22;;;8.32;98.69
76746;BME280;65671;49.976;20.038;2023-04-25T04:57:34;96928.88;;;8.41;99.17
76746;BME280;65671;49.976;20.038;2023-04-25T05:00:00;96919.88;;;8.55;99.76
76746;BME280;65671;49.976;20.038;2023-04-25T05:02:26;96928.56;;;8.70;99.30
76746;BME280;65671;49.976;20.038;2023-04-25T05:04:52;96926.03;;;8.56;98.04
76746;BME280;65671;49.976;20.038;2023-04-25T05:07:18;96924.78;;;8.64;97.71
76746;BME280;65671;49.976;20.038;2023-04-25T05:09:44;96925.28;;;8.55;98.13
76746;BME280;65671;49.976;20.038;2023-04-25T05:12:10;96925.16;;;8.62;98.37
76746;BME280;65671;49.976;20.038;2023-04-25T05:14:35;96934.22;;;8.49;98.31
76746;BME280;65671;49.976;20.038;2023-04-25T05:17:01;96929.63;;;8.46;98.60
76746;BME280;65671;49.976;20.038;2023-04-25T05:19:28;96932.31;;;8.46;99.10
76746;BME280;65671;49.976;20.038;2023-04-25T05:21:54;96932.31;;;8.46;97.83
76746;BME280;65671;49.976;20.038;2023-04-25T05:24:20;96934.22;;;8.49;97.90
76746;BME280;65671;49.976;20.038;2023-04-25T05:26:45;96933.09;;;8.46;97.22
76746;BME280;65671;49.976;20.038;2023-04-25T05:29:11;96939.16;;;8.54;97.93
76746;BME280;65671;49.976;20.038;2023-04-25T05:31:37;96944.19;;;8.52;97.73
76746;BME280;65671;49.976;20.038;2023-04-25T05:34:02;96941.03;;;8.57;96.44
76746;BME280;65671;49.976;20.038;2023-04-25T05:36:28;96941.38;;;8.62;96.82
76746;BME280;65671;49.976;20.038;2023-04-25T05:38:53;96940.16;;;8.67;96.46
76746;BME280;65671;49.976;20.038;2023-04-25T05:41:19;96939.56;;;8.52;95.56
76746;BME280;65671;49.976;20.038;2023-04-25T05:43:45;96950.81;;;8.47;95.95
76746;BME280;65671;49.976;20.038;2023-04-25T05:46:13;96956.25;;;8.44;97.50
76746;BME280;65671;49.976;20.038;2023-04-25T05:48:39;96949.66;;;8.45;97.03
76746;BME280;65671;49.976;20.038;2023-04-25T05:51:05;96952.91;;;8.32;95.89
76746;BME280;65671;49.976;20.038;2023-04-25T05:53:30;96956.34;;;8.33;95.59
76746;BME280;65671;49.976;20.038;2023-04-25T05:55:56;96963.69;;;8.32;96.64
76746;BME280;65671;49.976;20.038;2023-04-25T05:58:22;96955.28;;;8.23;96.85
76746;BME280;65671;49.976;20.038;2023-04-25T06:00:47;96971.47;;;8.20;95.93
76746;BME280;65671;49.976;20.038;2023-04-25T06:03:13;96967.56;;;8.28;96.25
76746;BME280;65671;49.976;20.038;2023-04-25T06:05:42;96965.31;;;8.19;95.16
76746;BME280;65671;49.976;20.038;2023-04-25T06:08:09;96968.88;;;8.09;96.40
76746;BME280;65671;49.976;20.038;2023-04-25T06:10:36;96969.75;;;7.99;93.55
76746;BME280;65671;49.976;20.038;2023-04-25T06:13:02;96981.38;;;7.89;94.82
76746;BME280;65671;49.976;20.038;2023-04-25T06:15:27;96984.09;;;7.85;93.14
76746;BME280;65671;49.976;20.038;2023-04-25T06:17:53;96982.25;;;7.79;96.91
76746;BME280;65671;49.976;20.038;2023-04-25T06:20:18;96987.91;;;7.92;92.99
76746;BME280;65671;49.976;20.038;2023-04-25T06:22:48;96974.09;;;7.86;92.67
76746;BME280;65671;49.976;20.038;2023-04-25T06:25:14;96980.75;;;7.71;93.06
76746;BME280;65671;49.976;20.038;2023-04-25T06:27:40;96984.16;;;7.82;93.42
76746;BME280;65671;49.976;20.038;2023-04-25T06:30:06;96983.34;;;7.85;94.16
76746;BME280;65671;49.976;20.038;2023-04-25T06:32:32;96988.75;;;7.81;94.63
76746;BME280;65671;49.976;20.038;2023-04-25T06:34:59;96986.13;;;7.74;93.77
76746;BME280;65671;49.976;20.038;2023-04-25T06:37:26;96991.75;;;7.94;94.24
76746;BME280;65671;49.976;20.038;2023-04-25T06:39:51;96985.78;;;8.13;93.22
76746;BME280;65671;49.976;20.038;2023-04-25T06:42:17;96982.16;;;7.86;92.13
76746;BME280;65671;49.976;20.038;2023-04-25T06:44:42;96985.63;;;7.90;93.04
76746;BME280;65671;49.976;20.038;2023-04-25T06:47:08;96992.03;;;8.03;93.96
76746;BME280;65671;49.976;20.038;2023-04-25T06:49:33;96997.00;;;8.08;91.89
76746;BME280;65671;49.976;20.038;2023-04-25T06:51:59;96988.94;;;8.05;92.25
76746;BME280;65671;49.976;20.038;2023-04-25T06:54:24;96982.56;;;8.32;93.30
76746;BME280;65671;49.976;20.038;2023-04-25T06:56:52;96990.97;;;8.38;92.30
76746;BME280;65671;49.976;20.038;2023-04-25T06:59:18;96986.63;;;8.48;95.21
76746;BME280;65671;49.976;20.038;2023-04-25T07:01:44;96987.81;;;8.47;90.81
76746;BME280;65671;49.976;20.038;2023-04-25T07:04:09;96998.34;;;8.30;88.84
76746;BME280;65671;49.976;20.038;2023-04-25T07:06:35;96987.56;;;8.30;89.05
76746;BME280;65671;49.976;20.038;2023-04-25T07:09:03;96983.38;;;8.29;91.37
76746;BME280;65671;49.976;20.038;2023-04-25T07:11:29;96984.59;;;8.59;91.65
76746;BME280;65671;49.976;20.038;2023-04-25T07:13:56;96997.88;;;8.39;87.70
76746;BME280;65671;49.976;20.038;2023-04-25T07:16:22;96988.97;;;8.46;88.12
76746;BME280;65671;49.976;20.038;2023-04-25T07:18:47;96994.72;;;8.48;90.31
76746;BME280;65671;49.976;20.038;2023-04-25T07:21:13;96996.13;;;8.18;86.82
76746;BME280;65671;49.976;20.038;2023-04-25T07:23:38;96990.75;;;8.15;88.24
76746;BME280;65671;49.976;20.038;2023-04-25T07:26:06;96994.53;;;8.24;89.55
76746;BME280;65671;49.976;20.038;2023-04-25T07:28:32;96995.03;;;8.12;89.54
76746;BME280;65671;49.976;20.038;2023-04-25T07:30:58;96984.84;;;7.90;90.87
76746;BME280;65671;49.976;20.038;2023-04-25T07:33:23;96995.72;;;7.79;91.40
76746;BME280;65671;49.976;20.038;2023-04-25T07:35:49;97001.72;;;7.97;91.18
76746;BME280;65671;49.976;20.038;2023-04-25T07:38:15;97004.31;;;8.11;91.43
76746;BME280;65671;49.976;20.038;2023-04-25T07:40:40;96996.59;;;8.51;90.77
76746;BME280;65671;49.976;20.038;2023-04-25T07:43:06;97005.09;;;8.53;91.73
76746;BME280;65671;49.976;20.038;2023-04-25T07:45:31;96997.22;;;8.99;94.74
76746;BME280;65671;49.976;20.038;2023-04-25T07:47:57;96994.75;;;9.12;89.35
76746;BME280;65671;49.976;20.038;2023-04-25T07:50:23;96995.00;;;8.90;85.82
76746;BME280;65671;49.976;20.038;2023-04-25T07:52:48;96999.81;;;8.76;87.35
76746;BME280;65671;49.976;20.038;2023-04-25T07:55:14;97003.88;;;8.91;80.41
76746;BME280;65671;49.976;20.038;2023-04-25T07:57:40;96997.41;;;8.85;83.34
76746;BME280;65671;49.976;20.038;2023-04-25T08:00:06;96998.44;;;9.25;86.23
76746;BME280;65671;49.976;20.038;2023-04-25T08:02:35;96997.03;;;8.83;81.39
76746;BME280;65671;49.976;20.038;2023-04-25T08:05:02;96997.47;;;8.78;83.79
76746;BME280;65671;49.976;20.038;2023-04-25T08:07:27;96992.88;;;8.75;82.75
76746;BME280;65671;49.976;20.038;2023-04-25T08:09:54;96996.53;;;8.58;84.67
76746;BME280;65671;49.976;20.038;2023-04-25T08:12:20;96993.84;;;8.58;83.01
76746;BME280;65671;49.976;20.038;2023-04-25T08:14:45;96996.84;;;8.67;84.21
76746;BME280;65671;49.976;20.038;2023-04-25T08:17:11;96998.91;;;8.86;82.75
76746;BME280;65671;49.976;20.038;2023-04-25T08:19:36;96997.50;;;9.08;82.91
76746;BME280;65671;49.976;20.038;2023-04-25T08:22:02;97000.56;;;9.10;84.40
76746;BME280;65671;49.976;20.038;2023-04-25T08:24:28;96996.06;;;8.66;82.75
76746;BME280;65671;49.976;20.038;2023-04-25T08:26:53;96998.31;;;8.71;87.10
76746;BME280;65671;49.976;20.038;2023-04-25T08:29:19;96994.91;;;8.97;85.96
76746;BME280;65671;49.976;20.038;2023-04-25T08:31:45;97004.16;;;9.00;80.69
76746;BME280;65671;49.976;20.038;2023-04-25T08:34:11;97000.69;;;8.66;84.02
76746;BME280;65671;49.976;20.038;2023-04-25T08:36:37;97013.75;;;8.71;85.84
76746;BME280;65671;49.976;20.038;2023-04-25T08:39:02;97009.50;;;8.73;87.93
76746;BME280;65671;49.976;20.038;2023-04-25T08:41:28;97007.13;;;8.79;86.06
76746;BME280;65671;49.976;20.038;2023-04-25T08:43:56;97008.88;;;8.59;85.08
76746;BME280;65671;49.976;20.038;2023-04-25T08:46:23;97006.78;;;8.73;90.57
76746;BME280;65671;49.976;20.038;2023-04-25T08:48:48;97019.16;;;8.71;89.18
76746;BME280;65671;49.976;20.038;2023-04-25T08:51:22;97012.00;;;8.54;89.54
76746;BME280;65671;49.976;20.038;2023-04-25T08:53:51;97003.97;;;8.84;88.16
76746;BME280;65671;49.976;20.038;2023-04-25T08:56:17;97007.81;;;8.83;85.69
76746;BME280;65671;49.976;20.038;2023-04-25T08:58:48;97013.78;;;9.01;86.06
76746;BME280;65671;49.976;20.038;2023-04-25T09:01:14;97017.38;;;9.21;86.67
76746;BME280;65671;49.976;20.038;2023-04-25T09:03:40;97020.31;;;9.34;84.28
76746;BME280;65671;49.976;20.038;2023-04-25T09:06:07;97021.34;;;9.13;83.40
76746;BME280;65671;49.976;20.038;2023-04-25T09:08:33;97023.97;;;8.86;85.60
76746;BME280;65671;49.976;20.038;2023-04-25T09:10:59;97028.97;;;8.91;83.33
76746;BME280;65671;49.976;20.038;2023-04-25T09:13:27;97024.28;;;8.92;83.17
76746;BME280;65671;49.976;20.038;2023-04-25T09:15:55;97028.81;;;9.02;83.58
76746;BME280;65671;49.976;20.038;2023-04-25T09:18:33;97025.81;;;8.96;84.62
76746;BME280;65671;49.976;20.038;2023-04-25T09:21:09;97022.59;;;9.05;85.44
76746;BME280;65671;49.976;20.038;2023-04-25T09:23:43;97029.00;;;9.18;83.74
76746;BME280;65671;49.976;20.038;2023-04-25T09:26:09;97026.47;;;9.34;85.24
76746;BME280;65671;49.976;20.038;2023-04-25T09:28:35;97027.31;;;9.28;83.93
76746;BME280;65671;49.976;20.038;2023-04-25T09:31:01;97029.78;;;9.45;84.17
76746;BME280;65671;49.976;20.038;2023-04-25T09:33:28;97040.78;;;9.31;84.36
76746;BME280;65671;49.976;20.038;2023-04-25T09:36:07;97030.56;;;9.16;83.54
76746;BME280;65671;49.976;20.038;2023-04-25T09:38:44;97029.69;;;8.92;85.12
76746;BME280;65671;49.976;20.038;2023-04-25T09:41:10;97027.59;;;9.07;85.53
76746;BME280;65671;49.976;20.038;2023-04-25T09:43:37;97022.25;;;9.03;85.16
76746;BME280;65671;49.976;20.038;2023-04-25T09:46:08;97023.69;;;9.11;86.03
76746;BME280;65671;49.976;20.038;2023-04-25T09:48:34;97023.53;;;9.22;83.90
76746;BME280;65671;49.976;20.038;2023-04-25T09:53:28;97024.31;;;9.22;86.78
76746;BME280;65671;49.976;20.038;2023-04-25T09:55:55;97020.47;;;8.89;84.85
76746;BME280;65671;49.976;20.038;2023-04-25T09:58:23;97025.75;;;9.00;85.87
76746;BME280;65671;49.976;20.038;2023-04-25T10:00:50;97021.59;;;8.92;85.61
76746;BME280;65671;49.976;20.038;2023-04-25T10:03:17;97017.88;;;8.82;85.46
76746;BME280;65671;49.976;20.038;2023-04-25T10:05:46;97029.47;;;8.79;83.85
76746;BME280;65671;49.976;20.038;2023-04-25T10:08:15;97024.00;;;8.83;83.42
76746;BME280;65671;49.976;20.038;2023-04-25T10:10:42;97024.31;;;9.22;84.48
76746;BME280;65671;49.976;20.038;2023-04-25T10:13:08;97027.50;;;9.14;82.46
76746;BME280;65671;49.976;20.038;2023-04-25T10:15:35;97024.81;;;9.14;81.99
76746;BME280;65671;49.976;20.038;2023-04-25T10:18:02;97030.34;;;9.33;82.18
76746;BME280;65671;49.976;20.038;2023-04-25T10:20:28;97017.78;;;9.20;79.04
76746;BME280;65671;49.976;20.038;2023-04-25T10:22:58;97017.09;;;9.42;78.84
76746;BME280;65671;49.976;20.038;2023-04-25T10:25:30;97012.19;;;9.34;80.44
76746;BME280;65671;49.976;20.038;2023-04-25T10:27:55;97013.28;;;9.40;81.33
76746;BME280;65671;49.976;20.038;2023-04-25T10:30:21;97022.69;;;9.28;78.19
76746;BME280;65671;49.976;20.038;2023-04-25T10:32:46;97023.59;;;9.18;79.70
76746;BME280;65671;49.976;20.038;2023-04-25T10:35:15;97022.47;;;9.16;79.06
76746;BME280;65671;49.976;20.038;2023-04-25T10:38:03;97019.75;;;9.46;80.10
76746;BME280;65671;49.976;20.038;2023-04-25T10:40:34;97023.84;;;9.58;77.15
76746;BME280;65671;49.976;20.038;2023-04-25T10:43:37;97018.94;;;9.76;75.22
76746;BME280;65671;49.976;20.038;2023-04-25T10:48:55;97006.41;;;9.89;70.27
76746;BME280;65671;49.976;20.038;2023-04-25T10:51:25;97013.63;;;10.19;69.46
76746;BME280;65671;49.976;20.038;2023-04-25T10:56:22;97016.16;;;9.83;69.01
76746;BME280;65671;49.976;20.038;2023-04-25T10:58:48;97010.72;;;9.83;68.43
76746;BME280;65671;49.976;20.038;2023-04-25T11:01:15;97001.66;;;9.93;67.64
76746;BME280;65671;49.976;20.038;2023-04-25T11:03:45;96996.75;;;9.88;73.02
76746;BME280;65671;49.976;20.038;2023-04-25T11:06:35;97007.66;;;10.04;73.22
76746;BME280;65671;49.976;20.038;2023-04-25T11:09:03;97003.59;;;10.19;69.52
76746;BME280;65671;49.976;20.038;2023-04-25T11:11:36;97003.63;;;10.16;68.45
76746;BME280;65671;49.976;20.038;2023-04-25T11:14:02;97004.97;;;10.04;67.56
76746;BME280;65671;49.976;20.038;2023-04-25T11:16:27;97002.91;;;10.15;69.07
76746;BME280;65671;49.976;20.038;2023-04-25T11:18:53;96990.94;;;10.36;68.47
76746;BME280;65671;49.976;20.038;2023-04-25T11:21:18;97000.00;;;10.69;72.00
76746;BME280;65671;49.976;20.038;2023-04-25T11:23:45;96994.28;;;10.63;67.69
76746;BME280;65671;49.976;20.038;2023-04-25T11:26:12;96998.25;;;10.58;69.57
76746;BME280;65671;49.976;20.038;2023-04-25T11:28:38;96998.06;;;10.26;66.95
76746;BME280;65671;49.976;20.038;2023-04-25T11:31:04;96995.44;;;10.42;72.86
76746;BME280;65671;49.976;20.038;2023-04-25T11:33:29;96991.44;;;10.50;73.77
76746;BME280;65671;49.976;20.038;2023-04-25T11:35:55;96999.13;;;10.32;69.54
76746;BME280;65671;49.976;20.038;2023-04-25T11:38:24;96999.22;;;10.02;68.99
76746;BME280;65671;49.976;20.038;2023-04-25T11:40:54;96996.53;;;9.75;70.17
76746;BME280;65671;49.976;20.038;2023-04-25T11:43:21;97001.91;;;9.79;72.06
76746;BME280;65671;49.976;20.038;2023-04-25T11:45:48;96990.75;;;9.77;70.57
76746;BME280;65671;49.976;20.038;2023-04-25T11:48:14;96999.41;;;9.65;73.88
76746;BME280;65671;49.976;20.038;2023-04-25T11:50:40;96999.72;;;9.43;74.56
76746;BME280;65671;49.976;20.038;2023-04-25T11:53:06;96994.97;;;9.78;72.09
76746;BME280;65671;49.976;20.038;2023-04-25T11:55:33;97000.03;;;9.99;72.73
76746;BME280;65671;49.976;20.038;2023-04-25T11:58:00;96998.28;;;9.89;73.33
76746;BME280;65671;49.976;20.038;2023-04-25T12:00:26;97006.09;;;9.57;70.97
76746;BME280;65671;49.976;20.038;2023-04-25T12:02:56;96995.00;;;9.74;73.62
76746;BME280;65671;49.976;20.038;2023-04-25T12:05:29;96996.75;;;9.88;78.50
76746;BME280;65671;49.976;20.038;2023-04-25T12:07:56;97000.28;;;10.08;73.97
76746;BME280;65671;49.976;20.038;2023-04-25T12:10:24;96998.56;;;10.21;77.76
76746;BME280;65671;49.976;20.038;2023-04-25T12:12:50;97003.09;;;10.01;77.29
76746;BME280;65671;49.976;20.038;2023-04-25T12:15:17;96994.00;;;10.38;75.87
76746;BME280;65671;49.976;20.038;2023-04-25T12:17:47;96993.94;;;10.41;77.70
76746;BME280;65671;49.976;20.038;2023-04-25T12:20:15;97001.66;;;10.20;78.02
76746;BME280;65671;49.976;20.038;2023-04-25T12:22:42;96995.28;;;10.06;69.53
76746;BME280;65671;49.976;20.038;2023-04-25T12:25:38;97009.31;;;9.98;71.91
76746;BME280;65671;49.976;20.038;2023-04-25T12:28:14;97000.63;;;10.10;73.69
76746;BME280;65671;49.976;20.038;2023-04-25T12:33:26;97003.09;;;10.01;78.51
76746;BME280;65671;49.976;20.038;2023-04-25T12:35:53;97009.38;;;9.94;79.95
76746;BME280;65671;49.976;20.038;2023-04-25T12:38:22;97009.81;;;9.66;77.38
76746;BME280;65671;49.976;20.038;2023-04-25T12:40:48;97004.09;;;9.34;78.19
76746;BME280;65671;49.976;20.038;2023-04-25T12:43:13;97016.94;;;8.96;76.16
76746;BME280;65671;49.976;20.038;2023-04-25T12:45:39;97003.59;;;8.82;74.97
76746;BME280;65671;49.976;20.038;2023-04-25T12:48:05;97011.00;;;8.74;75.86
76746;BME280;65671;49.976;20.038;2023-04-25T12:50:30;97015.44;;;8.58;81.63
76746;BME280;65671;49.976;20.038;2023-04-25T12:52:56;97013.22;;;8.49;79.50
76746;BME280;65671;49.976;20.038;2023-04-25T12:55:22;97013.34;;;8.72;77.09
76746;BME280;65671;49.976;20.038;2023-04-25T12:57:48;97001.63;;;8.86;82.43
76746;BME280;65671;49.976;20.038;2023-04-25T13:00:13;96995.41;;;8.89;82.05
76746;BME280;65671;49.976;20.038;2023-04-25T13:02:40;97001.56;;;8.89;81.92
76746;BME280;65671;49.976;20.038;2023-04-25T13:05:06;97009.38;;;9.14;84.82
76746;BME280;65671;49.976;20.038;2023-04-25T13:07:31;96999.66;;;9.20;85.40